TimeICT,TemperatureF,Dew PointF,Humidity,Sea Level PressureIn,VisibilityMPH,Wind Direction,Wind SpeedMPH,Gust SpeedMPH,PrecipitationIn,Events,Conditions,WindDirDegrees,DateUTC
12:00 AM,75.2,73.4,94,29.86,3.7,Calm,Calm,-,N/A,Rain-Thunderstorm,Light Thunderstorms and Rain,0,2012-11-17 17:00:00
12:30 AM,75.2,73.4,94,29.83,3.7,Calm,Calm,-,N/A,Rain-Thunderstorm,Light Thunderstorms and Rain,0,2012-11-17 17:30:00
1:00 AM,75.2,73.4,94,29.83,3.7,Calm,Calm,-,N/A,Rain-Thunderstorm,Light Thunderstorms and Rain,0,2012-11-17 18:00:00
2:00 AM,75.2,73.4,94,29.83,3.7,Calm,Calm,-,N/A,Rain-Thunderstorm,Light Thunderstorms and Rain,0,2012-11-17 19:00:00
2:30 AM,75.2,73.4,94,29.83,3.7,Calm,Calm,-,N/A,Rain,Light Rain,0,2012-11-17 19:30:00
3:00 AM,75.2,73.4,94,29.80,3.7,ENE,3.5,-,N/A,,Mostly Cloudy,60,2012-11-17 20:00:00
4:30 AM,73.4,71.6,94,29.80,3.7,Calm,Calm,-,N/A,,Mostly Cloudy,0,2012-11-17 21:30:00
5:00 AM,75.2,71.6,89,29.80,3.7,Calm,Calm,-,N/A,,Mostly Cloudy,0,2012-11-17 22:00:00
5:30 AM,-9999,-9999,N/A,29.80,3.7,Calm,Calm,-,N/A,,Mostly Cloudy,0,2012-11-17 22:30:00
6:00 AM,75.2,71.6,89,29.80,3.7,NNE,3.5,-,N/A,,Mostly Cloudy,20,2012-11-17 23:00:00
6:30 AM,75.2,71.6,89,29.83,4.3,Calm,Calm,-,N/A,,Mostly Cloudy,0,2012-11-17 23:30:00
7:00 AM,75.2,71.6,89,29.83,5.0,ENE,3.5,-,N/A,,Mostly Cloudy,60,2012-11-18 00:00:00
7:30 AM,77.0,71.6,83,29.83,5.6,Calm,Calm,-,N/A,,Mostly Cloudy,0,2012-11-18 00:30:00
8:00 AM,78.8,73.4,83,29.86,6.2,East,3.5,-,N/A,,Mostly Cloudy,80,2012-11-18 01:00:00
8:30 AM,80.6,71.6,74,29.86,6.2,East,5.8,-,N/A,,Mostly Cloudy,80,2012-11-18 01:30:00
9:00 AM,82.4,73.4,74,29.86,6.2,East,3.5,-,N/A,,Mostly Cloudy,100,2012-11-18 02:00:00
9:30 AM,82.4,73.4,74,29.86,6.2,East,4.6,-,N/A,,Mostly Cloudy,90,2012-11-18 02:30:00
10:00 AM,82.4,73.4,74,29.86,6.2,ENE,4.6,-,N/A,,Mostly Cloudy,70,2012-11-18 03:00:00
10:30 AM,84.2,73.4,70,29.86,6.2,East,4.6,-,N/A,,Mostly Cloudy,90,2012-11-18 03:30:00
11:00 AM,84.2,73.4,70,29.86,6.2,East,4.6,-,N/A,,Mostly Cloudy,90,2012-11-18 04:00:00
11:30 AM,84.2,73.4,70,29.86,6.2,ESE,4.6,-,N/A,,Mostly Cloudy,120,2012-11-18 04:30:00
12:00 PM,84.2,73.4,70,29.83,6.2,South,4.6,-,N/A,,Mostly Cloudy,190,2012-11-18 05:00:00
12:30 PM,86.0,73.4,66,29.83,6.2,South,4.6,-,N/A,,Mostly Cloudy,170,2012-11-18 05:30:00
1:00 PM,84.2,73.4,70,29.80,6.2,SSW,4.6,-,N/A,,Mostly Cloudy,210,2012-11-18 06:00:00
1:30 PM,84.2,73.4,70,29.80,5.0,WSW,6.9,-,N/A,Rain,Light Rain Showers,240,2012-11-18 06:30:00
2:00 PM,78.8,75.2,89,29.80,5.0,SW,11.5,-,N/A,,Mostly Cloudy,230,2012-11-18 07:00:00
2:30 PM,78.8,73.4,83,29.80,5.0,SW,11.5,-,N/A,,Mostly Cloudy,220,2012-11-18 07:30:00
3:00 PM,78.8,75.2,89,29.80,4.3,SW,11.5,-,N/A,,Mostly Cloudy,220,2012-11-18 08:00:00
3:30 PM,77.0,69.8,78,29.80,4.3,South,9.2,-,N/A,Thunderstorm,Thunderstorm,180,2012-11-18 08:30:00
4:00 PM,77.0,69.8,78,29.80,4.3,SE,4.6,-,N/A,Thunderstorm,Thunderstorm,140,2012-11-18 09:00:00
4:30 PM,77.0,71.6,83,29.80,5.0,South,9.2,-,N/A,Thunderstorm,Thunderstorm,180,2012-11-18 09:30:00
5:00 PM,77.0,69.8,78,29.80,5.0,NE,4.6,-,N/A,,Mostly Cloudy,50,2012-11-18 10:00:00
5:30 PM,75.2,71.6,89,29.80,5.0,Calm,Calm,-,N/A,,Mostly Cloudy,0,2012-11-18 10:30:00
6:00 PM,75.2,71.6,89,29.80,5.0,Calm,Calm,-,N/A,,Mostly Cloudy,0,2012-11-18 11:00:00
6:30 PM,75.2,71.6,89,29.80,5.0,Calm,Calm,-,N/A,,Mostly Cloudy,0,2012-11-18 11:30:00
7:00 PM,75.2,71.6,89,29.83,5.0,Calm,Calm,-,N/A,,Mostly Cloudy,0,2012-11-18 12:00:00
7:30 PM,75.2,71.6,89,29.83,5.0,Calm,Calm,-,N/A,,Mostly Cloudy,0,2012-11-18 12:30:00
8:00 PM,75.2,71.6,89,29.83,5.0,NNE,3.5,-,N/A,,Mostly Cloudy,20,2012-11-18 13:00:00
8:30 PM,73.4,71.6,94,29.83,5.0,NE,4.6,-,N/A,,Mostly Cloudy,40,2012-11-18 13:30:00
9:00 PM,75.2,71.6,89,29.86,5.0,ENE,3.5,-,N/A,,Mostly Cloudy,60,2012-11-18 14:00:00
9:30 PM,73.4,71.6,94,29.86,5.0,NNE,4.6,-,N/A,,Mostly Cloudy,20,2012-11-18 14:30:00
10:00 PM,73.4,71.6,94,29.86,5.0,Calm,Calm,-,N/A,,Mostly Cloudy,0,2012-11-18 15:00:00
10:30 PM,73.4,71.6,94,29.89,5.0,NNE,2.3,-,N/A,,Mostly Cloudy,20,2012-11-18 15:30:00
11:00 PM,73.4,71.6,94,29.86,5.0,NNE,2.3,-,N/A,,Mostly Cloudy,20,2012-11-18 16:00:00
11:30 PM,73.4,71.6,94,29.86,5.0,NE,2.3,-,N/A,,Mostly Cloudy,40,2012-11-18 16:30:00